Darstellungsparameter: Aktuell verwendete Einstellungen:
Skalierung der Graphiken ... ?
xyx+y,   Skalierungsfaktor:      Skalierung: Modus: x, Faktor: 1
Darstellungszeitraum ... ?
Vom - - bis: - -   Zeitraum: 16.04.2021 - 22.04.2021
Min/Max/Avg-Anzeige ... ?
Zeige MMA aktuell
Zeige MMA Monat
Zeige MMA alles
Zeige --A aktuell
Zeige --A Monat
Zeige --A alles
Keine MMA-Anzeige
MMA:
Average (ber die Originaldaten)
MMA-Basis: 16.04.2021 - 22.04.2021
Quicknavigation für Darstellung... ?
Tage:      1T, 2T, 3T, 5T -1T -2T -3T -5T +1T +2T +3T +5T
Wochen: 1W, 2W, 3W -1W -2W -3W +1W +2W +3W
Monate: 1M, 3M, 6M -1M -3M -6M +1M +3M +6M
Jahre:    1J, 3J, 5J, 10J -1J -3J -5J -10J +1J +3J +5J +10J
Nutze für die Darstellung ... ?
Originaldaten oder ...
Mittelwerte Minima Maxima auf...
Stundenbasis Tagesbasis Wochenbasis
Monatsbasis Jahresbasis      Datenbasis: Mittelwerte auf Stundenbasis
Darstellen als:
Statistik (Auto) Statistik J:M      Darstellung:
Zur Graphik,    zurück zur Übersicht aller Sensoren.
 
Tabellarische Datenbersicht: ?
 
Sensor: Nr:Datum:Temp:Abs-Feuchte:Windchill:Wind:
Aussen-T/F 1 16-04-2021 00:00:00 1.5 C 4.65 g/m*3 1.5 C 0.66667 km/h
2 16-04-2021 01:00:00 0.55 C 4.51 g/m*3 0.55 C 0 km/h
3 16-04-2021 02:00:00 0.35 C 4.52 g/m*3 0.35 C 0 km/h
4 16-04-2021 03:00:00 1.01667 C 4.74 g/m*3 1.02 C 0.13333 km/h
5 16-04-2021 04:00:00 1.44167 C 4.86 g/m*3 1.44 C 0.13333 km/h
6 16-04-2021 05:00:00 1.55833 C 4.85 g/m*3 1.56 C 0 km/h
7 16-04-2021 06:00:00 1.65833 C 4.9 g/m*3 1.66 C 0.13333 km/h
8 16-04-2021 07:00:00 1.93333 C 5.03 g/m*3 1.93 C 0 km/h
9 16-04-2021 08:00:00 2.75833 C 5.25 g/m*3 2.76 C 0.13333 km/h
10 16-04-2021 09:00:00 4.73333 C 5.22 g/m*3 3.26 C 6.46667 km/h
11 16-04-2021 10:00:00 6.25 C 5.08 g/m*3 4.08 C 10.34167 km/h
12 16-04-2021 11:00:00 7.675 C 4.86 g/m*3 5.35 C 12.9 km/h
13 16-04-2021 12:00:00 8.45 C 4.77 g/m*3 6.07 C 14.49167 km/h
14 16-04-2021 13:00:00 9.03333 C 4.76 g/m*3 7.09 C 12.35833 km/h
15 16-04-2021 14:00:00 8.79167 C 4.98 g/m*3 7.96 C 6.44167 km/h
16 16-04-2021 15:00:00 8.9 C 5.07 g/m*3 8.9 C 3.34167 km/h
17 16-04-2021 16:00:00 9.3 C 5.24 g/m*3 7.85 C 9.68333 km/h
18 16-04-2021 17:00:00 9.50833 C 5.41 g/m*3 9.51 C 4.55 km/h
19 16-04-2021 18:00:00 9.375 C 5.42 g/m*3 9.38 C 0.8 km/h
20 16-04-2021 19:00:00 9.11667 C 5.66 g/m*3 9.12 C 0 km/h
21 16-04-2021 20:00:00 7.85833 C 5.9 g/m*3 7.86 C 1.73333 km/h
22 16-04-2021 21:00:00 6.01667 C 5.78 g/m*3 6.02 C 0 km/h
23 16-04-2021 22:00:00 5.45 C 5.79 g/m*3 5.45 C 0 km/h
24 16-04-2021 23:00:00 4.825 C 5.7 g/m*3 4.83 C 0 km/h
25 17-04-2021 00:00:00 4.4 C 5.65 g/m*3 4.4 C 0 km/h
Sensor: Nr:Datum:Temp:Abs-Feuchte:Windchill:Wind:
Aussen-T/F 26 17-04-2021 01:00:00 4.275 C 5.62 g/m*3 4.28 C 0 km/h
27 17-04-2021 02:00:00 4.01667 C 5.6 g/m*3 4.02 C 0 km/h
28 17-04-2021 03:00:00 3.88333 C 5.56 g/m*3 3.88 C 0 km/h
29 17-04-2021 04:00:00 3.48333 C 5.43 g/m*3 3.48 C 0 km/h
30 17-04-2021 05:00:00 2.43333 C 5.14 g/m*3 2.43 C 0 km/h
31 17-04-2021 06:00:00 1.59167 C 4.93 g/m*3 1.59 C 0 km/h
32 17-04-2021 07:00:00 1.51667 C 4.99 g/m*3 1.52 C 0 km/h
33 17-04-2021 08:00:00 2.475 C 5.38 g/m*3 2.48 C 0 km/h
34 17-04-2021 09:00:00 4.21667 C 5.89 g/m*3 4.22 C 0 km/h
35 17-04-2021 10:00:00 7.475 C 5.53 g/m*3 6.64 C 5.775 km/h
36 17-04-2021 11:00:00 9.74167 C 4.77 g/m*3 7.53 C 15.56667 km/h
37 17-04-2021 12:00:00 10.75833 C 4.72 g/m*3 8.71 C 16.23333 km/h
38 17-04-2021 13:00:00 11.625 C 4.66 g/m*3 11.63 C 16.91667 km/h
39 17-04-2021 14:00:00 12.09167 C 4.63 g/m*3 12.09 C 15.7 km/h
40 17-04-2021 15:00:00 10.79167 C 5.1 g/m*3 8.43 C 19.43333 km/h
41 17-04-2021 16:00:00 9.95833 C 5.33 g/m*3 8.37 C 11.28333 km/h
42 17-04-2021 17:00:00 10.24167 C 5.14 g/m*3 8.77 C 10.9 km/h
43 17-04-2021 18:00:00 10.4 C 5.18 g/m*3 9.23 C 9.28333 km/h
44 17-04-2021 19:00:00 10.61667 C 5.28 g/m*3 9.2 C 11.03333 km/h
45 17-04-2021 20:00:00 9.88333 C 5.25 g/m*3 9.16 C 6.7 km/h
46 17-04-2021 21:00:00 8.74167 C 5.8 g/m*3 8.74 C 1.2 km/h
47 17-04-2021 22:00:00 7.95833 C 5.82 g/m*3 7.96 C 1.2 km/h
48 17-04-2021 23:00:00 7.74167 C 6.01 g/m*3 7.74 C 0 km/h
49 18-04-2021 00:00:00 7.375 C 5.99 g/m*3 7.38 C 0 km/h
50 18-04-2021 01:00:00 7.15 C 6.08 g/m*3 7.15 C 0 km/h
Sensor: Nr:Datum:Temp:Abs-Feuchte:Windchill:Wind:
Aussen-T/F 51 18-04-2021 02:00:00 6.76667 C 5.98 g/m*3 6.77 C 0 km/h
52 18-04-2021 03:00:00 6.15 C 5.91 g/m*3 6.15 C 0 km/h
53 18-04-2021 04:00:00 6.3 C 5.98 g/m*3 6.3 C 0 km/h
54 18-04-2021 05:00:00 6.64167 C 5.97 g/m*3 6.64 C 0.26667 km/h
55 18-04-2021 06:00:00 6.78333 C 5.98 g/m*3 6.78 C 0.66667 km/h
56 18-04-2021 07:00:00 6.825 C 5.99 g/m*3 6.83 C 1.06667 km/h
57 18-04-2021 08:00:00 7.24167 C 6.07 g/m*3 7.24 C 0.4 km/h
58 18-04-2021 09:00:00 7.79167 C 6.14 g/m*3 7.79 C 0 km/h
59 18-04-2021 10:00:00 7.76667 C 6.47 g/m*3 7.77 C 1.46667 km/h
60 18-04-2021 11:00:00 7.99167 C 6.71 g/m*3 7.99 C 2.8 km/h
61 18-04-2021 12:00:00 8.775 C 6.76 g/m*3 8.78 C 2.8 km/h
62 18-04-2021 13:00:00 10.50833 C 7.08 g/m*3 10.51 C 3.20833 km/h
63 18-04-2021 14:00:00 11.95833 C 7.17 g/m*3 11.96 C 10.20833 km/h
64 18-04-2021 15:00:00 12.18333 C 7.2 g/m*3 12.18 C 10.35 km/h
65 18-04-2021 16:00:00 12.61667 C 7.45 g/m*3 12.62 C 9.14167 km/h
66 18-04-2021 17:00:00 12.90833 C 7.56 g/m*3 12.91 C 7.78333 km/h
67 18-04-2021 18:00:00 12.66667 C 7.38 g/m*3 12.67 C 7.51667 km/h
68 18-04-2021 19:00:00 11.76667 C 7.75 g/m*3 11.77 C 2.26667 km/h
69 18-04-2021 20:00:00 10.35833 C 7.83 g/m*3 10.36 C 4.13333 km/h
70 18-04-2021 21:00:00 9.35 C 7.61 g/m*3 9.35 C 0.13333 km/h
71 18-04-2021 22:00:00 9.05 C 7.69 g/m*3 9.05 C 0.26667 km/h
72 18-04-2021 23:00:00 8.21667 C 7.36 g/m*3 8.22 C 1.2 km/h
73 19-04-2021 00:00:00 8.25833 C 7.5 g/m*3 8.26 C 0.66667 km/h
74 19-04-2021 01:00:00 8.53333 C 7.64 g/m*3 8.53 C 0.4 km/h
75 19-04-2021 02:00:00 8.48333 C 7.82 g/m*3 8.48 C 0.66667 km/h
Sensor: Nr:Datum:Temp:Abs-Feuchte:Windchill:Wind:
Aussen-T/F 76 19-04-2021 03:00:00 8.13333 C 7.74 g/m*3 8.13 C 0.66667 km/h
77 19-04-2021 04:00:00 7.78333 C 7.64 g/m*3 7.78 C 0 km/h
78 19-04-2021 05:00:00 7.7 C 7.63 g/m*3 7.7 C 0 km/h
79 19-04-2021 06:00:00 7.51667 C 7.57 g/m*3 7.52 C 0 km/h
80 19-04-2021 07:00:00 7.75833 C 7.73 g/m*3 7.76 C 0 km/h
81 19-04-2021 08:00:00 8.15 C 7.99 g/m*3 8.15 C 0 km/h
82 19-04-2021 09:00:00 8.30833 C 8.1 g/m*3 8.31 C 0 km/h
83 19-04-2021 10:00:00 8.78333 C 8.33 g/m*3 8.78 C 0.13333 km/h
84 19-04-2021 11:00:00 9.59167 C 8.55 g/m*3 9.59 C 2.4 km/h
85 19-04-2021 12:00:00 11.10833 C 8.56 g/m*3 11.11 C 4.54167 km/h
86 19-04-2021 13:00:00 12.18333 C 8.24 g/m*3 12.18 C 4.54167 km/h
87 19-04-2021 14:00:00 12.84167 C 7.97 g/m*3 12.84 C 4.13333 km/h
88 19-04-2021 15:00:00 13.55833 C 7.71 g/m*3 13.56 C 3.475 km/h
89 19-04-2021 16:00:00 14.39167 C 7.49 g/m*3 14.39 C 6.56667 km/h
90 19-04-2021 17:00:00 16.31667 C 7.5 g/m*3 16.32 C 7.11667 km/h
91 19-04-2021 18:00:00 15.76667 C 7.47 g/m*3 15.77 C 9.13333 km/h
92 19-04-2021 19:00:00 14.08333 C 7.92 g/m*3 14.08 C 4.69167 km/h
93 19-04-2021 20:00:00 11.375 C 7.99 g/m*3 11.38 C 3.2 km/h
94 19-04-2021 21:00:00 9.80833 C 7.9 g/m*3 9.81 C 2.8 km/h
95 19-04-2021 22:00:00 8.74167 C 7.56 g/m*3 8.74 C 0.13333 km/h
96 19-04-2021 23:00:00 7.39167 C 7.03 g/m*3 7.39 C 0.13333 km/h
97 20-04-2021 00:00:00 5.96667 C 6.56 g/m*3 5.97 C 0 km/h
98 20-04-2021 01:00:00 5 C 6.27 g/m*3 5 C 0 km/h
99 20-04-2021 02:00:00 4.51667 C 6.15 g/m*3 4.52 C 0 km/h
100 20-04-2021 03:00:00 3.93333 C 5.95 g/m*3 3.93 C 0 km/h
Sensor: Nr:Datum:Temp:Abs-Feuchte:Windchill:Wind:
Aussen-T/F 101 20-04-2021 04:00:00 3.31667 C 5.71 g/m*3 3.32 C 0.26667 km/h
102 20-04-2021 05:00:00 2.69167 C 5.52 g/m*3 2.69 C 0 km/h
103 20-04-2021 06:00:00 2.28333 C 5.38 g/m*3 2.28 C 0 km/h
104 20-04-2021 07:00:00 2.625 C 5.55 g/m*3 2.63 C 0 km/h
105 20-04-2021 08:00:00 3.41667 C 5.87 g/m*3 3.42 C 0.93333 km/h
106 20-04-2021 09:00:00 4.71667 C 6.42 g/m*3 4.72 C 0.66667 km/h
107 20-04-2021 10:00:00 7.18333 C 7.6 g/m*3 7.18 C 0.13333 km/h
108 20-04-2021 11:00:00 10.825 C 8.41 g/m*3 10.83 C 0 km/h
109 20-04-2021 12:00:00 13.91667 C 7.59 g/m*3 13.92 C 2.95 km/h
110 20-04-2021 13:00:00 15.25 C 7.52 g/m*3 15.25 C 4.69167 km/h
111 20-04-2021 14:00:00 15.69167 C 7.38 g/m*3 15.69 C 1.06667 km/h
112 20-04-2021 15:00:00 16.725 C 7.38 g/m*3 16.73 C 3.21667 km/h
113 20-04-2021 16:00:00 16.425 C 7.21 g/m*3 16.43 C 2 km/h
114 20-04-2021 17:00:00 16.73333 C 7.3 g/m*3 16.73 C 1.86667 km/h
115 20-04-2021 18:00:00 18.43333 C 7.12 g/m*3 18.43 C 4.41667 km/h
116 20-04-2021 19:00:00 17.475 C 7.12 g/m*3 17.48 C 1.6 km/h
117 20-04-2021 20:00:00 14.04167 C 7.49 g/m*3 14.04 C 4 km/h
118 20-04-2021 21:00:00 10.675 C 7.19 g/m*3 10.68 C 2.675 km/h
119 20-04-2021 22:00:00 8.76667 C 6.89 g/m*3 8.77 C 0 km/h
120 20-04-2021 23:00:00 7.375 C 6.66 g/m*3 7.38 C 0 km/h
121 21-04-2021 00:00:00 6.23333 C 6.42 g/m*3 6.23 C 0 km/h
122 21-04-2021 01:00:00 5.69167 C 6.33 g/m*3 5.69 C 0 km/h
123 21-04-2021 02:00:00 5.45 C 6.27 g/m*3 5.45 C 0 km/h
124 21-04-2021 03:00:00 4.55 C 5.97 g/m*3 4.55 C 0.13333 km/h
125 21-04-2021 04:00:00 4.025 C 5.83 g/m*3 4.03 C 0 km/h
Sensor: Nr:Datum:Temp:Abs-Feuchte:Windchill:Wind:
Aussen-T/F 126 21-04-2021 05:00:00 3.50833 C 5.7 g/m*3 3.51 C 0.26667 km/h
127 21-04-2021 06:00:00 2.8 C 5.46 g/m*3 2.8 C 0 km/h
128 21-04-2021 07:00:00 3.08333 C 5.65 g/m*3 3.08 C 0.66667 km/h
129 21-04-2021 08:00:00 4.31667 C 6.17 g/m*3 4.32 C 1.06667 km/h
130 21-04-2021 09:00:00 5.875 C 6.76 g/m*3 5.88 C 0.13333 km/h
131 21-04-2021 10:00:00 8.95 C 7.63 g/m*3 8.95 C 0.26667 km/h
132 21-04-2021 11:00:00 13.31667 C 8.21 g/m*3 13.32 C 1.06667 km/h
133 21-04-2021 12:00:00 15.81667 C 8.51 g/m*3 15.82 C 5.9 km/h
134 21-04-2021 13:00:00 16.84167 C 8.09 g/m*3 16.84 C 9.00833 km/h
135 21-04-2021 14:00:00 17.325 C 7.54 g/m*3 17.33 C 10.08333 km/h
136 21-04-2021 15:00:00 18.23333 C 7.46 g/m*3 18.23 C 10.74167 km/h
137 21-04-2021 16:00:00 18.9 C 8.02 g/m*3 18.9 C 12.225 km/h
138 21-04-2021 17:00:00 18.10833 C 7.51 g/m*3 18.11 C 12.23333 km/h
139 21-04-2021 18:00:00 16.54167 C 7.16 g/m*3 16.54 C 9 km/h
140 21-04-2021 19:00:00 16.15 C 7.28 g/m*3 16.15 C 1.86667 km/h
141 21-04-2021 20:00:00 15 C 7.37 g/m*3 15 C 2.40833 km/h
142 21-04-2021 21:00:00 12.69167 C 7.15 g/m*3 12.69 C 4 km/h
143 21-04-2021 22:00:00 12.65833 C 7.4 g/m*3 12.66 C 8.06667 km/h
144 21-04-2021 23:00:00 11.78333 C 7.32 g/m*3 11.78 C 10.60833 km/h
145 22-04-2021 00:00:00 10.53333 C 7.01 g/m*3 10.53 C 4.69167 km/h
146 22-04-2021 01:00:00 9.2 C 6.59 g/m*3 8.62 C 5.75833 km/h
147 22-04-2021 02:00:00 8.14167 C 6.22 g/m*3 6.94 C 7.51667 km/h
148 22-04-2021 03:00:00 7.05833 C 5.65 g/m*3 5.47 C 8.35 km/h
149 22-04-2021 04:00:00 5.76667 C 5.28 g/m*3 4.82 C 5.35833 km/h
150 22-04-2021 05:00:00 4.11667 C 5.08 g/m*3 4.12 C 2.26667 km/h
Sensor: Nr:Datum:Temp:Abs-Feuchte:Windchill:Wind:
Aussen-T/F 151 22-04-2021 06:00:00 2.86667 C 4.92 g/m*3 2.87 C 1.33333 km/h
152 22-04-2021 07:00:00 2.76667 C 4.97 g/m*3 2.77 C 1.06667 km/h
153 22-04-2021 08:00:00 4.425 C 5.05 g/m*3 2.67 C 7.24167 km/h
154 22-04-2021 09:00:00 5.7 C 4.99 g/m*3 3.81 C 8.6 km/h
155 22-04-2021 10:00:00 6.94167 C 4.95 g/m*3 4.71 C 11.43333 km/h
156 22-04-2021 11:00:00 8.06667 C 4.93 g/m*3 5.83 C 12.89167 km/h
157 22-04-2021 12:00:00 9.28333 C 5 g/m*3 7.33 C 12.75833 km/h
158 22-04-2021 13:00:00 10.325 C 4.84 g/m*3 8.46 C 13.83333 km/h
159 22-04-2021 14:00:00 11.80833 C 4.94 g/m*3 11.81 C 13.29167 km/h
160 22-04-2021 15:00:00 13.025 C 4.88 g/m*3 13.03 C 13.83333 km/h
161 22-04-2021 16:00:00 13.93333 C 5.18 g/m*3 13.93 C 12.09167 km/h
162 22-04-2021 17:00:00 14.48333 C 5.33 g/m*3 14.48 C 11.425 km/h
163 22-04-2021 18:00:00 14.33333 C 5.31 g/m*3 14.33 C 11.16667 km/h
164 22-04-2021 19:00:00 13.09167 C 5.45 g/m*3 13.09 C 9.15833 km/h
165 22-04-2021 20:00:00 11.33333 C 5.49 g/m*3 11.33 C 5.775 km/h
166 22-04-2021 21:00:00 8.91667 C 5.52 g/m*3 8.92 C 3.48333 km/h
167 22-04-2021 22:00:00 7.89167 C 5.56 g/m*3 7.89 C 3.46667 km/h
168 22-04-2021 23:00:00 6.75 C 5.61 g/m*3 6.75 C 0 km/h

Maximal/Minimal-Werte vom 16.04.2021 - 22.04.2021

Sensor Min Max Avg
Temp
(Aussen-T/F)
0.2 °C
16-04-2021  01:55:00
19.4 °C
21-04-2021  16:20:00
8.67 °C
Abs-Feuchte
(Aussen-T/F)
4.51 g/m*3
16-04-2021  01:00:00
8.56 g/m*3
19-04-2021  12:00:00
6.26 g/m*3
Windchill
(Aussen-T/F)
0.35 C
16-04-2021  02:00:00
18.9 C
21-04-2021  16:00:00
8.37 C

Die Daten stammen von einer Davis Vantage Pro 2 Wetter-Station und werden unter Linux mit der Software wview2wettercgi und aufbereitet. Alle Angaben erfolgen ohne Gewähr für ihre Vollständigkeit oder Richtigkeit.
Kontakt: Rainer Krienke krienke@uni-koblenz.de . Meine Webseiten an der Uni Koblenz oder privat.
Version: $Revision: 0.78 $